Grafton, ND

8:00 AM CST on January 21, 2018 (GMT -0600)
Grafton Municipal

Weather History for KGAF - October, 2012

Change the Weather History Date:

Friday, October 5, 2012

  Actual Average Record
Temperature  
Mean Temperature 34 °F -  
Max Temperature 35 °F 60 °F 86 °F (2011)
Min Temperature 32 °F 37 °F 19 °F (1952)
Degree Days  
Heating Degree Days 32    
Moisture  
Dew Point 31 °F    
Average Humidity 94    
Maximum Humidity 100    
Minimum Humidity 87    
Precipitation  
Precipitation 0.00 in - - ()
Sea Level Pressure  
Sea Level Pressure 30.20 in    
Wind  
Wind Speed 19 mph (NNW)    
Max Wind Speed 25 mph    
Max Gust Speed 32 mph    
Visibility 6 miles    
Events Rain , Snow    
Averages and records for this station are not official NWS values.
T = Trace of Precipitation, MM = Missing Value Source: NWS Daily Summary

Daily Weather History Graph

Daily Weather History Graph

Search for Another Location

Airport or City:

Trip Planner

Search our weather history database for the weather conditions in past years. The results will help you decide how hot, cold, wet, or windy it might be!

Date:

Astronomy

Oct. 05, 2012 Rise Set
Actual Time 7:35 AM CDT 6:59 PM CDT
Civil Twilight 7:04 AM CDT 7:30 PM CDT
Nautical Twilight 6:27 AM CDT 8:06 PM CDT
Astronomical Twilight 5:51 AM CDT 8:43 PM CDT
Moon 10:01 PM CDT (10/5) 1:06 PM CDT (10/5)
Length of Visible Light 12h 26m
Length of Day
11h 23m
Waning Gibbous, 74% of the Moon is Illuminated
Oct 5
Waning Gibbous
Oct 8
Last Quarter
Oct 15
New
Oct 21
First Quarter
Oct 29
Full

Hourly Weather History & Observations

Time (CDT) Temp. Windchill Dew Point Humidity Pressure Visibility Wind Dir Wind Speed Gust Speed Precip Events Conditions
12:15 AM 33.8 °F 22.2 °F 30.2 °F 87% 30.15 in 8.0 mi NW 20.7 mph 28.8 mph N/A Rain Light Rain
12:35 AM 33.8 °F 22.2 °F 30.2 °F 87% 30.15 in 9.0 mi NW 20.7 mph 25.3 mph N/A Rain Light Rain
12:55 AM 33.8 °F 23.2 °F 30.2 °F 87% 30.14 in 10.0 mi NW 17.3 mph 27.6 mph N/A Rain Light Rain
1:15 AM 33.8 °F 22.2 °F 30.2 °F 87% 30.14 in 9.0 mi WNW 20.7 mph - N/A Rain Light Rain
1:35 AM 32.0 °F 19.5 °F 30.2 °F 93% 30.14 in 7.0 mi NW 21.9 mph 29.9 mph N/A Snow Light Snow
1:55 AM 32.0 °F 20.1 °F 30.2 °F 93% 30.14 in 8.0 mi NW 19.6 mph 25.3 mph N/A Rain Light Rain
2:15 AM 32.0 °F 19.2 °F 30.2 °F 93% 30.14 in 10.0 mi NW 23.0 mph 29.9 mph N/A Rain Light Rain
2:35 AM 32.0 °F 19.8 °F 30.2 °F 93% 30.14 in 10.0 mi NW 20.7 mph 27.6 mph N/A   Mostly Cloudy
2:55 AM 32.0 °F 20.1 °F 28.4 °F 87% 30.14 in 8.0 mi NW 19.6 mph 28.8 mph N/A Rain Light Rain
3:15 AM 32.0 °F 20.8 °F 30.2 °F 93% 30.13 in 7.0 mi NW 17.3 mph 29.9 mph N/A Rain Light Rain
3:35 AM 32.0 °F 20.8 °F 30.2 °F 93% 30.13 in 8.0 mi NW 17.3 mph 28.8 mph N/A Rain Light Rain
3:55 AM 32.0 °F 20.8 °F 30.2 °F 93% 30.13 in 6.0 mi NW 17.3 mph 24.2 mph N/A Snow Light Snow
4:15 AM 32.0 °F 19.8 °F 30.2 °F 93% 30.13 in 5.0 mi NW 20.7 mph 26.5 mph N/A Snow Light Snow
4:35 AM 32.0 °F 19.5 °F 30.2 °F 93% 30.13 in 7.0 mi NW 21.9 mph 25.3 mph N/A Snow Light Snow
4:55 AM 32.0 °F 20.1 °F 30.2 °F 93% 30.13 in 10.0 mi NW 19.6 mph 25.3 mph N/A   Mostly Cloudy
5:15 AM 32.0 °F 20.5 °F 28.4 °F 87% 30.13 in 10.0 mi NW 18.4 mph 23.0 mph N/A Rain Light Rain
5:35 AM 32.0 °F 20.1 °F 28.4 °F 87% 30.13 in 10.0 mi NW 19.6 mph 31.1 mph N/A   Mostly Cloudy
5:55 AM 32.0 °F 20.5 °F 28.4 °F 87% 30.13 in 8.0 mi NW 18.4 mph 25.3 mph N/A Rain Light Rain
6:15 AM 32.0 °F 18.6 °F 28.4 °F 87% 30.12 in 10.0 mi NW 25.3 mph 31.1 mph N/A Rain Light Rain
6:35 AM 32.0 °F 20.1 °F 28.4 °F 87% 30.12 in 9.0 mi NW 19.6 mph 27.6 mph N/A Rain Light Rain
6:55 AM 32.0 °F 19.5 °F 30.2 °F 93% 30.13 in 7.0 mi NW 21.9 mph 26.5 mph N/A Rain Light Rain
7:15 AM 32.0 °F 20.1 °F 30.2 °F 93% 30.13 in 5.0 mi NW 19.6 mph 27.6 mph N/A Rain Light Rain
7:35 AM 32.0 °F 20.5 °F 30.2 °F 93% 30.14 in 4.0 mi NW 18.4 mph 27.6 mph N/A Snow Light Snow
7:55 AM 32.0 °F 20.1 °F 30.2 °F 93% 30.14 in 4.0 mi NW 19.6 mph 26.5 mph N/A Rain Light Rain
8:15 AM 32.0 °F 20.1 °F 30.2 °F 93% 30.14 in 5.0 mi NW 19.6 mph 25.3 mph N/A Rain Light Rain
8:35 AM 32.0 °F 20.1 °F 30.2 °F 93% 30.14 in 2.5 mi NW 19.6 mph 25.3 mph N/A Snow Light Snow
8:55 AM 32.0 °F 19.8 °F 32.0 °F 100% 30.15 in 4.0 mi NW 20.7 mph 26.5 mph N/A Snow Light Snow
9:15 AM 32.0 °F 20.5 °F 32.0 °F 100% 30.16 in 2.5 mi NW 18.4 mph 24.2 mph N/A Snow Light Snow
9:35 AM 32.0 °F 20.5 °F 32.0 °F 100% 30.16 in 1.2 mi NW 18.4 mph 28.8 mph N/A Snow Light Snow
9:55 AM 32.0 °F 20.1 °F 32.0 °F 100% 30.17 in 1.8 mi NW 19.6 mph 25.3 mph N/A Snow Light Snow
10:15 AM 32.0 °F 19.2 °F 32.0 °F 100% 30.17 in 2.5 mi NW 23.0 mph 29.9 mph N/A Snow Light Snow
10:35 AM 32.0 °F 19.8 °F 32.0 °F 100% 30.17 in 1.8 mi NW 20.7 mph 27.6 mph N/A Snow Light Snow
10:55 AM 32.0 °F 19.8 °F 32.0 °F 100% 30.18 in 1.2 mi NW 20.7 mph 24.2 mph N/A Snow Light Snow
11:15 AM 32.0 °F 19.8 °F 32.0 °F 100% 30.18 in 1.5 mi NW 20.7 mph 27.6 mph N/A Snow Light Snow
11:35 AM 33.8 °F 21.3 °F 32.0 °F 93% 30.19 in 2.0 mi NNW 24.2 mph 32.2 mph N/A Snow Light Snow
12:15 PM 32.0 °F 19.8 °F 32.0 °F 100% 30.20 in 1.5 mi NNW 20.7 mph 31.1 mph N/A Snow Light Snow
12:35 PM 33.8 °F 21.9 °F 32.0 °F 93% 30.20 in 1.8 mi NNW 21.9 mph 28.8 mph N/A Snow Light Snow
12:55 PM 32.0 °F 19.5 °F 32.0 °F 100% 30.20 in 1.5 mi NW 21.9 mph 28.8 mph N/A Snow Light Snow
1:35 PM 32.0 °F 20.5 °F 32.0 °F 100% 30.21 in 1.0 mi NW 18.4 mph 24.2 mph N/A Snow Light Snow
1:55 PM 32.0 °F 20.8 °F 32.0 °F 100% 30.21 in 0.8 mi NW 17.3 mph 24.2 mph N/A Snow Light Snow
2:15 PM 32.0 °F 20.8 °F 32.0 °F 100% 30.21 in 1.0 mi NW 17.3 mph - N/A Snow Light Snow
2:35 PM 32.0 °F 21.6 °F 32.0 °F 100% 30.21 in 1.0 mi NNW 15.0 mph - N/A Snow Light Snow
2:55 PM 33.8 °F 23.9 °F 32.0 °F 93% 30.21 in 2.0 mi NNW 15.0 mph 24.2 mph N/A Snow Light Snow
3:15 PM 33.8 °F 22.8 °F 32.0 °F 93% 30.21 in 3.0 mi NNW 18.4 mph 27.6 mph N/A Snow Light Snow
3:35 PM 35.6 °F 25.2 °F 32.0 °F 87% 30.21 in 10.0 mi NNW 18.4 mph 26.5 mph N/A Rain Light Rain
3:55 PM 33.8 °F 22.2 °F 32.0 °F 93% 30.22 in 2.5 mi NNW 20.7 mph 28.8 mph N/A Snow Light Snow
4:15 PM 33.8 °F 22.2 °F 32.0 °F 93% 30.22 in 4.0 mi NNW 20.7 mph 27.6 mph N/A Rain Light Rain
4:35 PM 33.8 °F 22.2 °F 32.0 °F 93% 30.22 in 4.0 mi NNW 20.7 mph 26.5 mph N/A Rain Light Rain
4:55 PM 33.8 °F 23.2 °F 32.0 °F 93% 30.23 in 5.0 mi NNW 17.3 mph 27.6 mph N/A Rain Light Rain
5:15 PM 33.8 °F 21.9 °F 32.0 °F 93% 30.23 in 3.0 mi NNW 21.9 mph 26.5 mph N/A   Overcast
5:35 PM 33.8 °F 22.5 °F 32.0 °F 93% 30.24 in 3.0 mi NNW 19.6 mph 27.6 mph N/A Snow Light Snow
5:55 PM 33.8 °F 22.8 °F 32.0 °F 93% 30.24 in 3.0 mi NNW 18.4 mph 23.0 mph N/A Snow Light Snow
6:15 PM 32.0 °F 21.6 °F 32.0 °F 100% 30.26 in 2.5 mi NNW 15.0 mph - N/A Snow Light Snow
6:35 PM 32.0 °F 22.1 °F 32.0 °F 100% 30.26 in 4.0 mi North 13.8 mph - N/A Snow Light Snow
6:55 PM 32.0 °F 21.6 °F 32.0 °F 100% 30.27 in 2.0 mi North 15.0 mph 24.2 mph N/A Snow Light Snow
7:15 PM 32.0 °F 22.1 °F 32.0 °F 100% 30.28 in 4.0 mi North 13.8 mph 23.0 mph N/A Snow Light Snow
7:35 PM 32.0 °F 20.5 °F 32.0 °F 100% 30.28 in 9.0 mi North 18.4 mph 25.3 mph N/A Rain Light Rain
7:55 PM 32.0 °F 21.2 °F 32.0 °F 100% 30.29 in 10.0 mi North 16.1 mph 23.0 mph N/A   Overcast
8:15 PM 33.8 °F 23.5 °F 32.0 °F 93% 30.29 in 10.0 mi North 16.1 mph 23.0 mph N/A   Overcast
8:35 PM 33.8 °F 24.3 °F 32.0 °F 93% 30.29 in 10.0 mi North 13.8 mph 20.7 mph N/A   Overcast
8:55 PM 33.8 °F 23.9 °F 32.0 °F 93% 30.30 in 10.0 mi North 15.0 mph - N/A   Overcast
9:15 PM 33.8 °F 24.3 °F 32.0 °F 93% 30.30 in 10.0 mi North 13.8 mph - N/A   Overcast
9:35 PM 33.8 °F 23.9 °F 30.2 °F 87% 30.31 in 10.0 mi North 15.0 mph 19.6 mph N/A   Overcast
9:55 PM 33.8 °F 25.3 °F 30.2 °F 87% 30.31 in 10.0 mi North 11.5 mph - N/A   Overcast
10:35 PM 32.0 °F 22.1 °F 32.0 °F 100% 30.31 in 10.0 mi North 13.8 mph 17.3 mph N/A   Mostly Cloudy
10:55 PM 32.0 °F 22.5 °F 30.2 °F 93% 30.31 in 10.0 mi North 12.7 mph 18.4 mph N/A   Scattered Clouds
11:15 PM 32.0 °F 22.5 °F 30.2 °F 93% 30.31 in 10.0 mi North 12.7 mph - N/A   Mostly Cloudy
11:35 PM 32.0 °F 23.6 °F 32.0 °F 100% 30.32 in 10.0 mi North 10.4 mph - N/A   Overcast
11:55 PM 32.0 °F 23.0 °F 32.0 °F 100% 30.31 in 10.0 mi North 11.5 mph - N/A   Overcast